sensor_id;sensor_type;location;lat;lon;timestamp;P1;durP1;ratioP1;P2;durP2;ratioP2
36839;SDS011;24406;51.640;9.566;2022-07-29T00:03:52;4.57;;;2.03;;
36839;SDS011;24406;51.640;9.566;2022-07-29T00:08:53;11.00;;;1.92;;
36839;SDS011;24406;51.640;9.566;2022-07-29T00:13:55;11.45;;;2.08;;
36839;SDS011;24406;51.640;9.566;2022-07-29T00:18:57;3.90;;;1.95;;
36839;SDS011;24406;51.640;9.566;2022-07-29T00:23:59;6.30;;;1.98;;
36839;SDS011;24406;51.640;9.566;2022-07-29T00:29:01;3.47;;;1.55;;
36839;SDS011;24406;51.640;9.566;2022-07-29T00:34:05;3.63;;;1.70;;
36839;SDS011;24406;51.640;9.566;2022-07-29T00:39:26;5.40;;;1.77;;
36839;SDS011;24406;51.640;9.566;2022-07-29T00:44:28;5.68;;;2.35;;
36839;SDS011;24406;51.640;9.566;2022-07-29T00:49:31;3.58;;;2.15;;
36839;SDS011;24406;51.640;9.566;2022-07-29T00:54:32;6.43;;;2.58;;
36839;SDS011;24406;51.640;9.566;2022-07-29T00:59:34;8.82;;;2.60;;
36839;SDS011;24406;51.640;9.566;2022-07-29T01:04:37;5.50;;;2.10;;
36839;SDS011;24406;51.640;9.566;2022-07-29T01:09:38;5.10;;;1.70;;
36839;SDS011;24406;51.640;9.566;2022-07-29T01:14:40;7.88;;;1.88;;
36839;SDS011;24406;51.640;9.566;2022-07-29T01:19:47;8.65;;;1.60;;
36839;SDS011;24406;51.640;9.566;2022-07-29T01:25:05;5.67;;;2.30;;
36839;SDS011;24406;51.640;9.566;2022-07-29T01:30:15;6.28;;;1.65;;
36839;SDS011;24406;51.640;9.566;2022-07-29T01:35:17;4.78;;;1.70;;
36839;SDS011;24406;51.640;9.566;2022-07-29T01:40:20;5.70;;;2.22;;
36839;SDS011;24406;51.640;9.566;2022-07-29T01:45:27;3.40;;;1.80;;
36839;SDS011;24406;51.640;9.566;2022-07-29T01:50:33;5.47;;;1.63;;
36839;SDS011;24406;51.640;9.566;2022-07-29T01:55:36;6.38;;;1.88;;
36839;SDS011;24406;51.640;9.566;2022-07-29T02:00:41;4.15;;;2.00;;
36839;SDS011;24406;51.640;9.566;2022-07-29T02:05:44;2.13;;;1.55;;
36839;SDS011;24406;51.640;9.566;2022-07-29T02:10:47;4.47;;;2.00;;
36839;SDS011;24406;51.640;9.566;2022-07-29T02:15:50;4.88;;;1.88;;
36839;SDS011;24406;51.640;9.566;2022-07-29T02:20:52;13.48;;;1.83;;
36839;SDS011;24406;51.640;9.566;2022-07-29T02:25:55;4.93;;;1.58;;
36839;SDS011;24406;51.640;9.566;2022-07-29T02:30:59;3.20;;;1.55;;
36839;SDS011;24406;51.640;9.566;2022-07-29T02:36:02;2.47;;;1.70;;
36839;SDS011;24406;51.640;9.566;2022-07-29T02:41:05;5.22;;;1.85;;
36839;SDS011;24406;51.640;9.566;2022-07-29T02:46:13;5.20;;;1.92;;
36839;SDS011;24406;51.640;9.566;2022-07-29T02:51:17;3.30;;;1.70;;
36839;SDS011;24406;51.640;9.566;2022-07-29T02:56:23;6.70;;;1.80;;
36839;SDS011;24406;51.640;9.566;2022-07-29T03:01:28;3.38;;;1.70;;
36839;SDS011;24406;51.640;9.566;2022-07-29T03:06:31;4.88;;;1.70;;
36839;SDS011;24406;51.640;9.566;2022-07-29T03:11:34;5.75;;;2.15;;
36839;SDS011;24406;51.640;9.566;2022-07-29T03:16:37;7.38;;;1.85;;
36839;SDS011;24406;51.640;9.566;2022-07-29T03:21:39;4.72;;;1.90;;
36839;SDS011;24406;51.640;9.566;2022-07-29T03:26:41;3.83;;;1.50;;
36839;SDS011;24406;51.640;9.566;2022-07-29T03:31:43;4.18;;;1.92;;
36839;SDS011;24406;51.640;9.566;2022-07-29T03:36:45;4.60;;;1.90;;
36839;SDS011;24406;51.640;9.566;2022-07-29T03:41:47;3.42;;;1.85;;
36839;SDS011;24406;51.640;9.566;2022-07-29T03:46:52;4.93;;;2.10;;
36839;SDS011;24406;51.640;9.566;2022-07-29T03:51:55;2.70;;;1.60;;
36839;SDS011;24406;51.640;9.566;2022-07-29T03:56:56;4.70;;;2.00;;
36839;SDS011;24406;51.640;9.566;2022-07-29T04:02:03;3.35;;;1.85;;
36839;SDS011;24406;51.640;9.566;2022-07-29T04:07:05;8.40;;;2.00;;
36839;SDS011;24406;51.640;9.566;2022-07-29T04:12:07;3.17;;;1.70;;
36839;SDS011;24406;51.640;9.566;2022-07-29T04:17:10;4.03;;;1.90;;
36839;SDS011;24406;51.640;9.566;2022-07-29T04:22:12;3.03;;;1.65;;
36839;SDS011;24406;51.640;9.566;2022-07-29T04:27:13;3.92;;;1.92;;
36839;SDS011;24406;51.640;9.566;2022-07-29T04:32:16;3.05;;;1.92;;
36839;SDS011;24406;51.640;9.566;2022-07-29T04:37:17;8.88;;;1.98;;
36839;SDS011;24406;51.640;9.566;2022-07-29T04:42:19;4.60;;;2.38;;
36839;SDS011;24406;51.640;9.566;2022-07-29T04:47:21;8.68;;;2.20;;
36839;SDS011;24406;51.640;9.566;2022-07-29T04:52:23;2.53;;;1.88;;
36839;SDS011;24406;51.640;9.566;2022-07-29T04:57:24;2.17;;;1.80;;
36839;SDS011;24406;51.640;9.566;2022-07-29T05:02:27;3.83;;;1.83;;
36839;SDS011;24406;51.640;9.566;2022-07-29T05:07:28;8.25;;;2.53;;
36839;SDS011;24406;51.640;9.566;2022-07-29T05:12:30;4.35;;;2.08;;
36839;SDS011;24406;51.640;9.566;2022-07-29T05:17:32;8.23;;;1.98;;
36839;SDS011;24406;51.640;9.566;2022-07-29T05:22:34;3.25;;;1.98;;
36839;SDS011;24406;51.640;9.566;2022-07-29T05:27:35;6.53;;;2.13;;
36839;SDS011;24406;51.640;9.566;2022-07-29T05:32:38;3.63;;;2.00;;
36839;SDS011;24406;51.640;9.566;2022-07-29T05:37:39;4.95;;;1.92;;
36839;SDS011;24406;51.640;9.566;2022-07-29T05:42:41;5.85;;;1.88;;
36839;SDS011;24406;51.640;9.566;2022-07-29T05:47:43;5.22;;;1.98;;
36839;SDS011;24406;51.640;9.566;2022-07-29T05:52:45;6.85;;;2.55;;
36839;SDS011;24406;51.640;9.566;2022-07-29T05:57:46;3.67;;;1.90;;
36839;SDS011;24406;51.640;9.566;2022-07-29T06:02:49;7.82;;;2.00;;
36839;SDS011;24406;51.640;9.566;2022-07-29T06:07:51;3.83;;;2.13;;
36839;SDS011;24406;51.640;9.566;2022-07-29T06:12:53;3.20;;;2.03;;
36839;SDS011;24406;51.640;9.566;2022-07-29T06:17:56;2.20;;;1.92;;
36839;SDS011;24406;51.640;9.566;2022-07-29T06:22:57;5.55;;;2.13;;
36839;SDS011;24406;51.640;9.566;2022-07-29T06:27:59;5.47;;;1.83;;
36839;SDS011;24406;51.640;9.566;2022-07-29T06:33:02;5.43;;;1.77;;
36839;SDS011;24406;51.640;9.566;2022-07-29T06:38:04;5.05;;;1.90;;
36839;SDS011;24406;51.640;9.566;2022-07-29T06:43:05;4.28;;;2.15;;
36839;SDS011;24406;51.640;9.566;2022-07-29T06:48:08;3.90;;;2.20;;
36839;SDS011;24406;51.640;9.566;2022-07-29T06:53:10;4.93;;;1.92;;
36839;SDS011;24406;51.640;9.566;2022-07-29T06:58:11;7.68;;;2.40;;
36839;SDS011;24406;51.640;9.566;2022-07-29T07:03:15;6.15;;;2.58;;
36839;SDS011;24406;51.640;9.566;2022-07-29T07:08:17;7.55;;;2.40;;
36839;SDS011;24406;51.640;9.566;2022-07-29T07:13:19;8.43;;;1.77;;
36839;SDS011;24406;51.640;9.566;2022-07-29T07:18:22;4.97;;;2.13;;
36839;SDS011;24406;51.640;9.566;2022-07-29T07:23:23;4.63;;;1.95;;
36839;SDS011;24406;51.640;9.566;2022-07-29T07:28:25;11.10;;;2.60;;
36839;SDS011;24406;51.640;9.566;2022-07-29T07:33:28;9.20;;;2.33;;
36839;SDS011;24406;51.640;9.566;2022-07-29T07:38:29;9.25;;;2.38;;
36839;SDS011;24406;51.640;9.566;2022-07-29T07:43:31;7.38;;;2.03;;
36839;SDS011;24406;51.640;9.566;2022-07-29T07:48:33;9.68;;;2.28;;
36839;SDS011;24406;51.640;9.566;2022-07-29T07:53:35;8.95;;;2.35;;
36839;SDS011;24406;51.640;9.566;2022-07-29T07:58:37;5.97;;;2.17;;
36839;SDS011;24406;51.640;9.566;2022-07-29T08:03:40;5.80;;;1.80;;
36839;SDS011;24406;51.640;9.566;2022-07-29T08:08:41;3.58;;;2.13;;
36839;SDS011;24406;51.640;9.566;2022-07-29T08:13:42;4.72;;;2.05;;
36839;SDS011;24406;51.640;9.566;2022-07-29T08:18:45;3.85;;;1.92;;
36839;SDS011;24406;51.640;9.566;2022-07-29T08:23:47;2.38;;;1.85;;
36839;SDS011;24406;51.640;9.566;2022-07-29T08:28:50;11.60;;;2.17;;
36839;SDS011;24406;51.640;9.566;2022-07-29T08:33:53;2.45;;;1.80;;
36839;SDS011;24406;51.640;9.566;2022-07-29T08:38:56;10.43;;;2.15;;
36839;SDS011;24406;51.640;9.566;2022-07-29T08:43:57;2.90;;;1.92;;
36839;SDS011;24406;51.640;9.566;2022-07-29T08:49:01;4.75;;;2.15;;
36839;SDS011;24406;51.640;9.566;2022-07-29T08:54:03;4.20;;;2.33;;
36839;SDS011;24406;51.640;9.566;2022-07-29T08:59:04;5.88;;;1.70;;
36839;SDS011;24406;51.640;9.566;2022-07-29T09:04:09;3.30;;;2.08;;
36839;SDS011;24406;51.640;9.566;2022-07-29T09:09:12;8.85;;;2.03;;
36839;SDS011;24406;51.640;9.566;2022-07-29T09:14:14;4.32;;;1.88;;
36839;SDS011;24406;51.640;9.566;2022-07-29T09:19:21;5.07;;;2.25;;
36839;SDS011;24406;51.640;9.566;2022-07-29T09:24:24;15.63;;;2.90;;
36839;SDS011;24406;51.640;9.566;2022-07-29T09:29:27;4.25;;;2.10;;
36839;SDS011;24406;51.640;9.566;2022-07-29T09:34:30;6.00;;;2.17;;
36839;SDS011;24406;51.640;9.566;2022-07-29T09:39:32;6.03;;;2.67;;
36839;SDS011;24406;51.640;9.566;2022-07-29T09:44:42;4.40;;;2.50;;
36839;SDS011;24406;51.640;9.566;2022-07-29T09:49:53;7.03;;;2.75;;
36839;SDS011;24406;51.640;9.566;2022-07-29T09:55:04;3.83;;;2.10;;
36839;SDS011;24406;51.640;9.566;2022-07-29T10:00:07;5.57;;;2.65;;
36839;SDS011;24406;51.640;9.566;2022-07-29T10:05:17;7.93;;;2.47;;
36839;SDS011;24406;51.640;9.566;2022-07-29T10:10:21;6.22;;;2.45;;
36839;SDS011;24406;51.640;9.566;2022-07-29T10:15:24;10.88;;;3.15;;
36839;SDS011;24406;51.640;9.566;2022-07-29T10:20:28;4.97;;;2.90;;
36839;SDS011;24406;51.640;9.566;2022-07-29T10:25:30;6.35;;;2.92;;
36839;SDS011;24406;51.640;9.566;2022-07-29T10:30:32;5.68;;;2.63;;
36839;SDS011;24406;51.640;9.566;2022-07-29T10:35:40;7.38;;;2.75;;
36839;SDS011;24406;51.640;9.566;2022-07-29T10:40:49;10.10;;;2.97;;
36839;SDS011;24406;51.640;9.566;2022-07-29T10:46:11;10.00;;;3.05;;
36839;SDS011;24406;51.640;9.566;2022-07-29T10:51:14;5.85;;;3.30;;
36839;SDS011;24406;51.640;9.566;2022-07-29T10:56:25;9.32;;;3.58;;
36839;SDS011;24406;51.640;9.566;2022-07-29T11:01:29;5.72;;;3.50;;
36839;SDS011;24406;51.640;9.566;2022-07-29T11:12:08;5.82;;;2.95;;
36839;SDS011;24406;51.640;9.566;2022-07-29T11:18:03;11.35;;;3.72;;
36839;SDS011;24406;51.640;9.566;2022-07-29T11:23:23;10.02;;;3.33;;
36839;SDS011;24406;51.640;9.566;2022-07-29T11:28:27;7.82;;;3.25;;
36839;SDS011;24406;51.640;9.566;2022-07-29T11:33:30;7.43;;;3.70;;
36839;SDS011;24406;51.640;9.566;2022-07-29T11:38:32;13.82;;;4.38;;
36839;SDS011;24406;51.640;9.566;2022-07-29T11:43:46;6.22;;;4.05;;
36839;SDS011;24406;51.640;9.566;2022-07-29T11:48:48;6.53;;;4.10;;
36839;SDS011;24406;51.640;9.566;2022-07-29T11:53:50;6.47;;;3.60;;
36839;SDS011;24406;51.640;9.566;2022-07-29T11:59:01;6.43;;;3.75;;
36839;SDS011;24406;51.640;9.566;2022-07-29T12:04:04;10.32;;;3.90;;
36839;SDS011;24406;51.640;9.566;2022-07-29T12:09:07;4.88;;;3.28;;
36839;SDS011;24406;51.640;9.566;2022-07-29T12:14:10;7.22;;;3.85;;
36839;SDS011;24406;51.640;9.566;2022-07-29T12:19:25;4.82;;;3.50;;
36839;SDS011;24406;51.640;9.566;2022-07-29T12:24:27;12.13;;;3.97;;
36839;SDS011;24406;51.640;9.566;2022-07-29T12:29:45;9.50;;;3.63;;
36839;SDS011;24406;51.640;9.566;2022-07-29T12:34:46;11.23;;;3.78;;
36839;SDS011;24406;51.640;9.566;2022-07-29T12:39:48;6.93;;;4.05;;
36839;SDS011;24406;51.640;9.566;2022-07-29T12:44:52;7.47;;;3.63;;
36839;SDS011;24406;51.640;9.566;2022-07-29T12:50:07;14.05;;;3.00;;
36839;SDS011;24406;51.640;9.566;2022-07-29T12:55:09;11.65;;;3.40;;
36839;SDS011;24406;51.640;9.566;2022-07-29T13:00:12;6.82;;;2.72;;
36839;SDS011;24406;51.640;9.566;2022-07-29T13:05:14;8.25;;;2.78;;
36839;SDS011;24406;51.640;9.566;2022-07-29T13:10:17;22.20;;;3.45;;
36839;SDS011;24406;51.640;9.566;2022-07-29T13:15:20;10.18;;;3.15;;
36839;SDS011;24406;51.640;9.566;2022-07-29T13:20:23;6.88;;;2.90;;
36839;SDS011;24406;51.640;9.566;2022-07-29T13:25:25;11.25;;;3.70;;
36839;SDS011;24406;51.640;9.566;2022-07-29T13:30:29;7.25;;;3.22;;
36839;SDS011;24406;51.640;9.566;2022-07-29T13:35:31;3.20;;;2.90;;
36839;SDS011;24406;51.640;9.566;2022-07-29T13:40:32;5.82;;;3.30;;
36839;SDS011;24406;51.640;9.566;2022-07-29T13:45:36;6.07;;;3.17;;
36839;SDS011;24406;51.640;9.566;2022-07-29T13:50:38;7.43;;;3.33;;
36839;SDS011;24406;51.640;9.566;2022-07-29T13:55:39;8.85;;;3.20;;
36839;SDS011;24406;51.640;9.566;2022-07-29T14:00:42;9.60;;;2.95;;
36839;SDS011;24406;51.640;9.566;2022-07-29T14:05:43;10.32;;;3.47;;
36839;SDS011;24406;51.640;9.566;2022-07-29T14:10:45;8.90;;;2.80;;
36839;SDS011;24406;51.640;9.566;2022-07-29T14:15:47;17.50;;;3.50;;
36839;SDS011;24406;51.640;9.566;2022-07-29T14:20:49;7.00;;;2.60;;
36839;SDS011;24406;51.640;9.566;2022-07-29T14:25:51;10.20;;;2.88;;
36839;SDS011;24406;51.640;9.566;2022-07-29T14:30:54;6.00;;;2.65;;
36839;SDS011;24406;51.640;9.566;2022-07-29T14:35:55;6.20;;;2.63;;
36839;SDS011;24406;51.640;9.566;2022-07-29T14:40:57;8.55;;;3.00;;
36839;SDS011;24406;51.640;9.566;2022-07-29T14:46:00;9.63;;;3.28;;
36839;SDS011;24406;51.640;9.566;2022-07-29T14:51:01;9.57;;;3.35;;
36839;SDS011;24406;51.640;9.566;2022-07-29T14:56:03;5.43;;;3.00;;
36839;SDS011;24406;51.640;9.566;2022-07-29T15:01:06;4.45;;;2.78;;
36839;SDS011;24406;51.640;9.566;2022-07-29T15:06:07;5.00;;;2.97;;
36839;SDS011;24406;51.640;9.566;2022-07-29T15:11:09;7.70;;;2.88;;
36839;SDS011;24406;51.640;9.566;2022-07-29T15:16:12;5.45;;;3.13;;
36839;SDS011;24406;51.640;9.566;2022-07-29T15:21:14;16.83;;;3.70;;
36839;SDS011;24406;51.640;9.566;2022-07-29T15:26:15;4.57;;;3.72;;
36839;SDS011;24406;51.640;9.566;2022-07-29T15:31:19;6.40;;;3.90;;
36839;SDS011;24406;51.640;9.566;2022-07-29T15:36:20;4.35;;;2.90;;
36839;SDS011;24406;51.640;9.566;2022-07-29T15:41:21;5.03;;;3.00;;
36839;SDS011;24406;51.640;9.566;2022-07-29T15:46:24;7.07;;;3.90;;
36839;SDS011;24406;51.640;9.566;2022-07-29T15:51:43;6.88;;;3.30;;
36839;SDS011;24406;51.640;9.566;2022-07-29T15:56:45;8.95;;;3.83;;
36839;SDS011;24406;51.640;9.566;2022-07-29T16:01:47;9.32;;;4.00;;
36839;SDS011;24406;51.640;9.566;2022-07-29T16:06:50;11.52;;;3.38;;
36839;SDS011;24406;51.640;9.566;2022-07-29T16:11:51;12.40;;;3.28;;
36839;SDS011;24406;51.640;9.566;2022-07-29T16:16:54;7.80;;;3.33;;
36839;SDS011;24406;51.640;9.566;2022-07-29T16:21:55;5.00;;;3.67;;
36839;SDS011;24406;51.640;9.566;2022-07-29T16:26:57;10.63;;;4.20;;
36839;SDS011;24406;51.640;9.566;2022-07-29T16:31:59;6.35;;;3.50;;
36839;SDS011;24406;51.640;9.566;2022-07-29T16:37:01;16.27;;;4.60;;
36839;SDS011;24406;51.640;9.566;2022-07-29T16:42:02;19.38;;;4.68;;
36839;SDS011;24406;51.640;9.566;2022-07-29T16:47:05;8.10;;;3.90;;
36839;SDS011;24406;51.640;9.566;2022-07-29T16:52:07;11.38;;;4.32;;
36839;SDS011;24406;51.640;9.566;2022-07-29T16:57:08;12.73;;;4.80;;
36839;SDS011;24406;51.640;9.566;2022-07-29T17:02:12;8.40;;;4.43;;
36839;SDS011;24406;51.640;9.566;2022-07-29T17:07:13;10.60;;;4.00;;
36839;SDS011;24406;51.640;9.566;2022-07-29T17:12:15;9.63;;;4.28;;
36839;SDS011;24406;51.640;9.566;2022-07-29T17:17:18;7.65;;;4.15;;
36839;SDS011;24406;51.640;9.566;2022-07-29T17:22:19;9.02;;;4.30;;
36839;SDS011;24406;51.640;9.566;2022-07-29T17:27:20;9.13;;;3.60;;
36839;SDS011;24406;51.640;9.566;2022-07-29T17:32:23;10.70;;;3.67;;
36839;SDS011;24406;51.640;9.566;2022-07-29T17:37:25;8.50;;;4.40;;
36839;SDS011;24406;51.640;9.566;2022-07-29T17:42:27;6.65;;;4.18;;
36839;SDS011;24406;51.640;9.566;2022-07-29T17:47:30;9.63;;;3.85;;
36839;SDS011;24406;51.640;9.566;2022-07-29T17:52:31;12.20;;;4.43;;
36839;SDS011;24406;51.640;9.566;2022-07-29T17:57:33;7.30;;;4.00;;
36839;SDS011;24406;51.640;9.566;2022-07-29T18:02:36;4.72;;;4.15;;
36839;SDS011;24406;51.640;9.566;2022-07-29T18:07:37;8.00;;;3.90;;
36839;SDS011;24406;51.640;9.566;2022-07-29T18:12:38;8.75;;;4.50;;
36839;SDS011;24406;51.640;9.566;2022-07-29T18:17:41;10.00;;;4.28;;
36839;SDS011;24406;51.640;9.566;2022-07-29T18:22:42;6.60;;;4.00;;
36839;SDS011;24406;51.640;9.566;2022-07-29T18:27:44;10.10;;;4.05;;
36839;SDS011;24406;51.640;9.566;2022-07-29T18:32:47;6.82;;;4.00;;
36839;SDS011;24406;51.640;9.566;2022-07-29T18:37:49;7.15;;;3.83;;
36839;SDS011;24406;51.640;9.566;2022-07-29T18:42:52;7.07;;;4.10;;
36839;SDS011;24406;51.640;9.566;2022-07-29T18:47:55;9.85;;;3.80;;
36839;SDS011;24406;51.640;9.566;2022-07-29T18:52:57;6.50;;;3.97;;
36839;SDS011;24406;51.640;9.566;2022-07-29T18:58:00;7.55;;;3.50;;
36839;SDS011;24406;51.640;9.566;2022-07-29T19:03:03;10.27;;;4.20;;
36839;SDS011;24406;51.640;9.566;2022-07-29T19:08:05;6.57;;;3.80;;
36839;SDS011;24406;51.640;9.566;2022-07-29T19:13:06;11.32;;;3.67;;
36839;SDS011;24406;51.640;9.566;2022-07-29T19:18:09;15.50;;;4.40;;
36839;SDS011;24406;51.640;9.566;2022-07-29T19:23:12;6.57;;;3.75;;
36839;SDS011;24406;51.640;9.566;2022-07-29T19:28:13;10.23;;;4.90;;
36839;SDS011;24406;51.640;9.566;2022-07-29T19:33:16;6.68;;;4.18;;
36839;SDS011;24406;51.640;9.566;2022-07-29T19:38:18;12.38;;;3.90;;
36839;SDS011;24406;51.640;9.566;2022-07-29T19:43:19;13.77;;;4.72;;
36839;SDS011;24406;51.640;9.566;2022-07-29T19:48:22;8.20;;;4.13;;
36839;SDS011;24406;51.640;9.566;2022-07-29T19:53:23;17.23;;;5.50;;
36839;SDS011;24406;51.640;9.566;2022-07-29T19:58:25;7.00;;;4.22;;
36839;SDS011;24406;51.640;9.566;2022-07-29T20:03:28;8.35;;;4.95;;
36839;SDS011;24406;51.640;9.566;2022-07-29T20:08:29;8.55;;;4.70;;
36839;SDS011;24406;51.640;9.566;2022-07-29T20:13:30;8.45;;;4.80;;
36839;SDS011;24406;51.640;9.566;2022-07-29T20:18:35;6.25;;;4.75;;
36839;SDS011;24406;51.640;9.566;2022-07-29T20:23:37;7.75;;;5.68;;
36839;SDS011;24406;51.640;9.566;2022-07-29T20:28:38;6.38;;;5.47;;
36839;SDS011;24406;51.640;9.566;2022-07-29T20:33:41;6.20;;;5.60;;
36839;SDS011;24406;51.640;9.566;2022-07-29T20:38:43;9.98;;;5.90;;
36839;SDS011;24406;51.640;9.566;2022-07-29T20:43:44;13.55;;;6.57;;
36839;SDS011;24406;51.640;9.566;2022-07-29T20:48:47;8.90;;;5.72;;
36839;SDS011;24406;51.640;9.566;2022-07-29T20:53:49;6.75;;;5.95;;
36839;SDS011;24406;51.640;9.566;2022-07-29T20:58:50;12.45;;;5.75;;
36839;SDS011;24406;51.640;9.566;2022-07-29T21:03:53;9.90;;;5.88;;
36839;SDS011;24406;51.640;9.566;2022-07-29T21:08:54;7.50;;;6.68;;
36839;SDS011;24406;51.640;9.566;2022-07-29T21:13:57;6.80;;;5.97;;
36839;SDS011;24406;51.640;9.566;2022-07-29T21:19:00;10.73;;;6.30;;
36839;SDS011;24406;51.640;9.566;2022-07-29T21:24:02;8.90;;;7.30;;
36839;SDS011;24406;51.640;9.566;2022-07-29T21:29:03;8.50;;;7.30;;
36839;SDS011;24406;51.640;9.566;2022-07-29T21:34:06;9.52;;;6.85;;
36839;SDS011;24406;51.640;9.566;2022-07-29T21:39:08;7.07;;;6.38;;
36839;SDS011;24406;51.640;9.566;2022-07-29T21:44:09;8.82;;;7.20;;
36839;SDS011;24406;51.640;9.566;2022-07-29T21:49:12;8.25;;;6.97;;
36839;SDS011;24406;51.640;9.566;2022-07-29T21:54:13;8.02;;;7.07;;
36839;SDS011;24406;51.640;9.566;2022-07-29T21:59:15;9.60;;;7.20;;
36839;SDS011;24406;51.640;9.566;2022-07-29T22:04:17;9.48;;;6.63;;
36839;SDS011;24406;51.640;9.566;2022-07-29T22:09:19;7.97;;;6.15;;
36839;SDS011;24406;51.640;9.566;2022-07-29T22:14:20;7.55;;;6.00;;
36839;SDS011;24406;51.640;9.566;2022-07-29T22:19:23;9.13;;;8.15;;
36839;SDS011;24406;51.640;9.566;2022-07-29T22:24:24;13.05;;;8.38;;
36839;SDS011;24406;51.640;9.566;2022-07-29T22:29:25;10.00;;;7.70;;
36839;SDS011;24406;51.640;9.566;2022-07-29T22:34:28;7.70;;;6.97;;
36839;SDS011;24406;51.640;9.566;2022-07-29T22:39:30;7.55;;;6.63;;
36839;SDS011;24406;51.640;9.566;2022-07-29T22:44:32;10.10;;;6.80;;
36839;SDS011;24406;51.640;9.566;2022-07-29T22:49:34;7.45;;;6.85;;
36839;SDS011;24406;51.640;9.566;2022-07-29T22:54:36;9.43;;;7.25;;
36839;SDS011;24406;51.640;9.566;2022-07-29T22:59:38;8.20;;;7.53;;
36839;SDS011;24406;51.640;9.566;2022-07-29T23:04:40;9.73;;;8.73;;
36839;SDS011;24406;51.640;9.566;2022-07-29T23:09:42;12.85;;;8.77;;
36839;SDS011;24406;51.640;9.566;2022-07-29T23:14:43;9.90;;;8.07;;
36839;SDS011;24406;51.640;9.566;2022-07-29T23:19:46;12.95;;;9.05;;
36839;SDS011;24406;51.640;9.566;2022-07-29T23:24:47;9.45;;;8.48;;
36839;SDS011;24406;51.640;9.566;2022-07-29T23:29:49;13.68;;;8.85;;
36839;SDS011;24406;51.640;9.566;2022-07-29T23:34:51;10.07;;;9.13;;
36839;SDS011;24406;51.640;9.566;2022-07-29T23:39:53;10.68;;;9.23;;
36839;SDS011;24406;51.640;9.566;2022-07-29T23:44:54;12.68;;;10.10;;
36839;SDS011;24406;51.640;9.566;2022-07-29T23:49:57;13.38;;;10.75;;
36839;SDS011;24406;51.640;9.566;2022-07-29T23:54:59;12.30;;;11.00;;
